createdAt,value
2022-11-21T00:01:28.254Z,2.90
2022-11-21T00:03:55.343Z,3.00
2022-11-21T00:06:23.532Z,2.90
2022-11-21T00:08:50.876Z,2.90
2022-11-21T00:11:17.831Z,2.93
2022-11-21T00:13:45.667Z,3.00
2022-11-21T00:16:15.884Z,2.93
2022-11-21T00:18:44.227Z,2.90
2022-11-21T00:21:18.580Z,2.90
2022-11-21T00:23:48.343Z,2.90
2022-11-21T00:26:17.325Z,2.97
2022-11-21T00:28:44.668Z,3.00
2022-11-21T00:31:25.052Z,2.93
2022-11-21T00:33:52.085Z,2.93
2022-11-21T00:36:19.107Z,2.90
2022-11-21T00:38:46.232Z,3.00
2022-11-21T00:41:13.288Z,2.90
2022-11-21T00:43:40.277Z,2.93
2022-11-21T00:46:07.289Z,3.00
2022-11-21T00:48:34.375Z,2.93
2022-11-21T00:51:02.046Z,2.90
2022-11-21T00:53:30.309Z,2.97
2022-11-21T00:55:57.705Z,3.00
2022-11-21T00:58:24.724Z,2.97
2022-11-21T01:00:51.801Z,2.97
2022-11-21T01:03:19.397Z,2.93
2022-11-21T01:05:46.344Z,2.97
2022-11-21T01:08:13.337Z,2.90
2022-11-21T01:10:40.708Z,2.97
2022-11-21T01:13:07.850Z,2.90
2022-11-21T01:15:35.345Z,2.97
2022-11-21T01:18:02.310Z,2.93
2022-11-21T01:20:29.289Z,2.93
2022-11-21T01:22:56.257Z,3.00
2022-11-21T01:25:23.297Z,2.90
2022-11-21T01:27:50.411Z,3.00
2022-11-21T01:30:17.465Z,2.97
2022-11-21T01:32:49.898Z,2.97
2022-11-21T01:35:18.432Z,2.90
2022-11-21T01:37:49.968Z,2.90
2022-11-21T01:40:17.409Z,2.90
2022-11-21T01:42:53.809Z,2.93
2022-11-21T01:45:58.325Z,2.90
2022-11-21T01:48:56.758Z,2.90
2022-11-21T01:51:57.914Z,2.97
2022-11-21T01:55:05.701Z,2.97
2022-11-21T01:57:42.174Z,2.93
2022-11-21T02:00:21.402Z,2.97
2022-11-21T02:02:55.689Z,2.97
2022-11-21T02:05:29.632Z,2.97
2022-11-21T02:08:15.195Z,2.90
2022-11-21T02:11:20.353Z,3.07
2022-11-21T02:13:47.314Z,3.00
2022-11-21T02:16:14.485Z,2.93
2022-11-21T02:18:41.494Z,2.90
2022-11-21T02:21:28.070Z,2.97
2022-11-21T02:24:24.730Z,2.87
2022-11-21T02:26:52.910Z,2.97
2022-11-21T02:29:20.277Z,2.93
2022-11-21T02:31:47.298Z,2.90
2022-11-21T02:34:14.725Z,2.87
2022-11-21T02:36:46.296Z,2.93
2022-11-21T02:39:47.354Z,2.97
2022-11-21T02:42:28.646Z,2.97
2022-11-21T02:45:25.274Z,2.87
2022-11-21T02:47:59.430Z,2.90
2022-11-21T02:50:37.710Z,2.87
2022-11-21T02:53:08.640Z,2.90
2022-11-21T02:55:36.006Z,2.80
2022-11-21T02:58:05.448Z,2.90
2022-11-21T03:00:36.241Z,2.87
2022-11-21T03:03:04.067Z,2.80
2022-11-21T03:05:31.726Z,2.90
2022-11-21T03:07:58.986Z,2.97
2022-11-21T03:10:26.179Z,2.90
2022-11-21T03:13:00.620Z,2.90
2022-11-21T03:15:32.236Z,2.90
2022-11-21T03:18:02.521Z,2.90
2022-11-21T03:20:32.768Z,2.93
2022-11-21T03:23:00.599Z,2.93
2022-11-21T03:25:28.409Z,2.93
2022-11-21T03:27:56.097Z,2.93
2022-11-21T03:30:25.976Z,2.90
2022-11-21T03:32:56.648Z,2.93
2022-11-21T03:35:24.549Z,2.90
2022-11-21T03:37:51.579Z,2.93
2022-11-21T03:40:18.597Z,2.90
2022-11-21T03:42:45.995Z,2.90
2022-11-21T03:45:12.967Z,2.93
2022-11-21T03:47:39.885Z,2.93
2022-11-21T03:50:07.831Z,3.00
2022-11-21T03:52:34.773Z,2.90
2022-11-21T03:55:01.771Z,2.97
2022-11-21T03:57:28.708Z,2.87
2022-11-21T03:59:55.705Z,2.93
2022-11-21T04:02:23.101Z,2.97
2022-11-21T04:04:50.057Z,2.97
2022-11-21T04:07:17.069Z,2.90
2022-11-21T04:09:44.164Z,2.90
2022-11-21T04:12:11.092Z,2.90
2022-11-21T04:14:38.073Z,2.93
2022-11-21T04:17:05.632Z,2.90
2022-11-21T04:19:32.631Z,2.97
2022-11-21T04:21:59.997Z,3.00
2022-11-21T04:24:27.655Z,2.80
2022-11-21T04:26:55.712Z,2.90
2022-11-21T04:29:22.784Z,2.90
2022-11-21T04:31:49.720Z,2.90
2022-11-21T04:34:16.768Z,2.90
2022-11-21T04:36:43.803Z,2.90
2022-11-21T04:39:10.814Z,2.90
2022-11-21T04:41:37.765Z,2.83
2022-11-21T04:44:05.144Z,2.90
2022-11-21T04:46:32.101Z,2.87
2022-11-21T04:48:59.197Z,2.90
2022-11-21T04:51:26.193Z,2.90
2022-11-21T04:53:53.157Z,2.93
2022-11-21T04:56:20.133Z,2.90
2022-11-21T04:58:47.106Z,2.93
2022-11-21T05:01:14.513Z,2.90
2022-11-21T05:03:41.537Z,3.00
2022-11-21T05:06:08.769Z,3.00
2022-11-21T05:08:35.726Z,2.97
2022-11-21T05:11:21.378Z,2.90
2022-11-21T05:13:48.805Z,2.90
2022-11-21T05:16:15.761Z,2.93
2022-11-21T05:18:42.709Z,2.93
2022-11-21T05:21:09.682Z,2.97
2022-11-21T05:23:37.077Z,2.90
2022-11-21T05:26:04.011Z,2.90
2022-11-21T05:28:30.993Z,2.97
2022-11-21T05:30:57.928Z,2.90
2022-11-21T05:33:24.951Z,2.90
2022-11-21T05:35:51.874Z,3.00
2022-11-21T05:38:19.307Z,2.93
2022-11-21T05:40:46.266Z,2.93
2022-11-21T05:43:32.061Z,2.90
2022-11-21T05:45:59.504Z,2.90
2022-11-21T05:48:26.447Z,2.90
2022-11-21T05:50:53.423Z,2.80
2022-11-21T05:53:20.527Z,2.90
2022-11-21T05:55:47.695Z,3.00
2022-11-21T05:58:15.018Z,2.90
2022-11-21T06:00:42.216Z,2.90
2022-11-21T06:03:30.048Z,2.90
2022-11-21T06:06:09.655Z,3.00
2022-11-21T06:08:44.739Z,3.03
2022-11-21T06:11:17.009Z,3.00
2022-11-21T06:13:44.752Z,3.00
2022-11-21T06:16:16.703Z,3.03
2022-11-21T06:18:56.869Z,3.00
2022-11-21T06:21:28.779Z,3.00
2022-11-21T06:23:58.281Z,3.00
2022-11-21T06:26:27.764Z,3.07
2022-11-21T06:28:55.589Z,3.03
2022-11-21T06:31:26.794Z,2.90
2022-11-21T06:33:57.497Z,2.90
2022-11-21T06:36:25.608Z,2.90
2022-11-21T06:38:55.563Z,2.97
2022-11-21T06:41:26.600Z,2.90
2022-11-21T06:43:54.041Z,2.90
2022-11-21T06:46:21.000Z,2.90
2022-11-21T06:48:48.389Z,2.93
2022-11-21T06:51:24.552Z,2.87
2022-11-21T06:53:58.210Z,2.90
2022-11-21T06:56:28.612Z,2.90
2022-11-21T06:58:56.314Z,2.97
2022-11-21T07:01:27.959Z,2.90
2022-11-21T07:03:57.052Z,2.90
2022-11-21T07:06:24.821Z,2.83
2022-11-21T07:09:25.384Z,2.97
2022-11-21T07:11:43.092Z,2.90
2022-11-21T07:14:10.758Z,2.90
2022-11-21T07:16:38.017Z,2.90
2022-11-21T07:19:05.520Z,2.90
2022-11-21T07:21:32.637Z,2.90
2022-11-21T07:24:00.273Z,2.80
2022-11-21T07:26:27.749Z,2.83
2022-11-21T07:28:54.767Z,2.90
2022-11-21T07:31:21.711Z,2.87
2022-11-21T07:33:49.145Z,2.80
2022-11-21T07:36:16.546Z,2.90
2022-11-21T07:38:46.074Z,2.90
2022-11-21T07:41:13.595Z,2.90
2022-11-21T07:43:40.589Z,2.97
2022-11-21T07:46:07.602Z,2.93
2022-11-21T07:48:34.982Z,2.80
2022-11-21T07:51:05.482Z,2.90
2022-11-21T07:53:33.066Z,2.87
2022-11-21T07:56:00.702Z,3.00
2022-11-21T07:58:27.881Z,2.83
2022-11-21T08:00:55.304Z,2.87
2022-11-21T08:03:25.082Z,2.87
2022-11-21T08:05:52.027Z,2.80
2022-11-21T08:08:19.397Z,2.80
2022-11-21T08:10:46.939Z,2.83
2022-11-21T08:13:14.768Z,2.83
2022-11-21T08:15:42.404Z,2.87
2022-11-21T08:18:15.962Z,2.83
2022-11-21T08:20:43.440Z,2.83
2022-11-21T08:23:11.009Z,2.87
2022-11-21T08:25:40.751Z,2.80
2022-11-21T08:28:11.319Z,2.80
2022-11-21T08:30:40.238Z,2.73
2022-11-21T08:33:08.152Z,2.73
2022-11-21T08:35:38.177Z,2.73
2022-11-21T08:38:06.178Z,2.73
2022-11-21T08:40:34.629Z,2.70
2022-11-21T08:43:08.897Z,2.80
2022-11-21T08:45:38.380Z,2.70
2022-11-21T08:48:11.504Z,2.70
2022-11-21T08:50:38.645Z,2.80
2022-11-21T08:53:06.042Z,2.83
2022-11-21T08:55:33.071Z,2.80
2022-11-21T08:58:00.158Z,2.70
2022-11-21T09:03:44.513Z,2.80
2022-11-21T09:06:13.008Z,2.80
2022-11-21T09:08:40.217Z,2.77
2022-11-21T09:11:09.909Z,2.90
2022-11-21T09:13:37.554Z,2.77
2022-11-21T09:16:24.009Z,2.80
2022-11-21T09:18:54.168Z,2.80
2022-11-21T09:21:21.908Z,2.80
2022-11-21T09:23:49.387Z,2.80
2022-11-21T09:26:16.756Z,2.80
2022-11-21T09:28:43.720Z,2.93
2022-11-21T09:31:10.789Z,2.87
2022-11-21T09:33:37.747Z,2.90
2022-11-21T09:36:05.273Z,2.80
2022-11-21T09:38:32.276Z,2.90
2022-11-21T09:41:49.797Z,2.90
2022-11-21T09:44:44.360Z,2.90
2022-11-21T09:47:35.856Z,2.80
2022-11-21T09:50:19.598Z,2.90
2022-11-21T09:53:05.408Z,2.83
2022-11-21T09:56:01.097Z,3.03
2022-11-21T09:58:48.703Z,2.90
2022-11-21T10:01:17.507Z,2.87
2022-11-21T10:03:54.621Z,2.80
2022-11-21T10:06:28.945Z,2.80
2022-11-21T10:09:15.820Z,2.80
2022-11-21T10:12:39.545Z,2.90
2022-11-21T10:15:30.377Z,2.83
2022-11-21T10:18:59.998Z,2.93
2022-11-21T10:21:41.221Z,2.83
2022-11-21T10:24:40.567Z,2.90
2022-11-21T10:27:35.100Z,2.80
2022-11-21T10:30:16.843Z,2.83
2022-11-21T10:33:03.473Z,2.80
2022-11-21T10:35:51.898Z,2.80
2022-11-21T10:38:31.122Z,2.70
2022-11-21T10:41:12.522Z,2.70
2022-11-21T10:44:01.870Z,2.70
2022-11-21T10:46:28.855Z,2.70
2022-11-21T10:49:00.562Z,2.70
2022-11-21T10:51:52.074Z,2.77
2022-11-21T10:54:34.285Z,2.70
2022-11-21T10:57:18.828Z,2.63
2022-11-21T11:00:13.050Z,2.80
2022-11-21T11:02:43.717Z,2.70
2022-11-21T11:05:18.757Z,2.70
2022-11-21T11:08:12.005Z,2.70
2022-11-21T11:11:01.770Z,2.73
2022-11-21T11:13:52.134Z,2.70
2022-11-21T11:16:22.412Z,2.73
2022-11-21T11:19:35.380Z,2.73
2022-11-21T11:22:29.845Z,2.73
2022-11-21T11:25:00.460Z,2.80
2022-11-21T11:27:29.959Z,2.80
2022-11-21T11:29:57.347Z,2.80
2022-11-21T11:32:24.671Z,2.73
2022-11-21T11:35:02.972Z,2.83
2022-11-21T11:37:41.332Z,2.87
2022-11-21T11:40:39.975Z,2.90
2022-11-21T11:44:08.676Z,2.80
2022-11-21T11:47:19.176Z,2.83
2022-11-21T11:50:11.317Z,2.80
2022-11-21T11:52:56.918Z,2.73
2022-11-21T11:56:08.330Z,2.80
2022-11-21T11:59:11.940Z,2.80
2022-11-21T12:01:50.532Z,2.80
2022-11-21T12:04:20.964Z,2.83
2022-11-21T12:11:05.671Z,2.90
2022-11-21T12:13:35.978Z,2.90
2022-11-21T12:16:13.629Z,2.87
2022-11-21T12:19:07.954Z,2.80
2022-11-21T12:21:34.996Z,3.00
2022-11-21T12:24:08.159Z,2.90
2022-11-21T12:27:31.829Z,2.87
2022-11-21T12:30:48.263Z,2.87
2022-11-21T12:33:23.630Z,2.87
2022-11-21T12:36:38.720Z,2.80
2022-11-21T12:39:34.030Z,2.90
2022-11-21T12:42:50.895Z,2.83
2022-11-21T12:45:40.212Z,2.80
2022-11-21T12:48:39.274Z,2.80
2022-11-21T12:51:58.322Z,2.83
2022-11-21T12:55:00.626Z,2.90
2022-11-21T12:57:56.909Z,2.83
2022-11-21T13:01:04.752Z,2.83
2022-11-21T13:04:05.325Z,2.83
2022-11-21T13:06:40.882Z,2.80
2022-11-21T13:09:20.566Z,2.80
2022-11-21T13:12:02.650Z,2.73
2022-11-21T13:14:53.170Z,2.77
2022-11-21T13:17:26.165Z,2.80
2022-11-21T13:20:40.157Z,2.83
2022-11-21T13:23:35.858Z,2.80
2022-11-21T13:26:26.012Z,2.60
2022-11-21T13:29:15.321Z,2.73
2022-11-21T13:31:43.364Z,2.80
2022-11-21T13:34:38.314Z,2.70
2022-11-21T13:37:06.111Z,2.80
2022-11-21T13:39:35.989Z,2.70
2022-11-21T13:42:28.486Z,2.80
2022-11-21T13:44:55.689Z,2.73
2022-11-21T13:48:30.506Z,2.70
2022-11-21T13:51:55.483Z,2.80
2022-11-21T13:54:44.021Z,2.80
2022-11-21T13:57:41.462Z,2.77
2022-11-21T14:01:03.232Z,2.70
2022-11-21T14:04:25.021Z,2.80
2022-11-21T14:06:52.238Z,2.90
2022-11-21T14:09:48.132Z,2.83
2022-11-21T14:12:44.110Z,2.87
2022-11-21T14:15:43.282Z,2.97
2022-11-21T14:18:23.234Z,2.80
2022-11-21T14:21:00.405Z,2.60
2022-11-21T14:23:33.109Z,2.70
2022-11-21T14:26:21.167Z,3.07
2022-11-21T14:28:48.502Z,3.00
2022-11-21T14:31:16.059Z,2.93
2022-11-21T14:33:47.130Z,2.80
2022-11-21T14:36:25.775Z,2.70
2022-11-21T14:39:35.899Z,2.70
2022-11-21T14:42:03.507Z,2.87
2022-11-21T14:44:30.978Z,2.70
2022-11-21T14:47:19.637Z,2.70
2022-11-21T14:49:56.991Z,2.63
2022-11-21T14:52:31.391Z,2.80
2022-11-21T14:57:52.194Z,2.70
2022-11-21T15:03:24.055Z,2.80
2022-11-21T15:06:07.058Z,2.80
2022-11-21T15:11:39.434Z,2.77
2022-11-21T15:14:28.195Z,2.80
2022-11-21T15:16:58.587Z,2.80
2022-11-21T15:19:29.356Z,2.80
2022-11-21T15:22:01.672Z,2.80
2022-11-21T15:24:42.865Z,2.80
2022-11-21T15:27:31.489Z,2.87
2022-11-21T15:30:10.578Z,2.87
2022-11-21T15:33:11.342Z,2.87
2022-11-21T15:35:48.943Z,2.90
2022-11-21T15:38:27.667Z,2.93
2022-11-21T15:41:23.480Z,2.97
2022-11-21T15:44:02.924Z,3.00
2022-11-21T15:46:32.944Z,3.00
2022-11-21T15:49:30.983Z,3.03
2022-11-21T15:52:06.682Z,3.10
2022-11-21T15:54:34.636Z,3.03
2022-11-21T15:57:02.278Z,3.00
2022-11-21T15:59:29.457Z,3.00
2022-11-21T16:01:56.549Z,3.03
2022-11-21T16:04:25.814Z,3.00
2022-11-21T16:06:54.532Z,3.00
2022-11-21T16:09:21.513Z,3.00
2022-11-21T16:11:48.706Z,3.10
2022-11-21T16:14:18.277Z,3.10
2022-11-21T16:16:47.368Z,3.00
2022-11-21T16:19:15.839Z,3.00
2022-11-21T16:21:43.432Z,2.97
2022-11-21T16:24:10.419Z,3.00
2022-11-21T16:26:37.550Z,3.10
2022-11-21T16:29:05.630Z,3.07
2022-11-21T16:31:33.734Z,3.10
2022-11-21T16:34:00.949Z,3.10
2022-11-21T16:36:32.121Z,3.17
2022-11-21T16:39:07.894Z,3.17
2022-11-21T16:41:39.129Z,3.10
2022-11-21T16:44:14.861Z,3.10
2022-11-21T16:46:45.208Z,3.10
2022-11-21T16:49:13.125Z,3.20
2022-11-21T16:51:40.097Z,3.20
2022-11-21T16:54:09.248Z,3.20
2022-11-21T16:56:36.567Z,3.10
2022-11-21T16:59:03.665Z,3.13
2022-11-21T17:01:30.759Z,3.17
2022-11-21T17:03:57.983Z,3.10
2022-11-21T17:06:30.160Z,3.17
2022-11-21T17:09:01.273Z,3.10
2022-11-21T17:11:31.264Z,3.20
2022-11-21T17:14:06.161Z,3.17
2022-11-21T17:16:35.671Z,3.10
2022-11-21T17:19:05.589Z,3.17
2022-11-21T17:21:33.987Z,3.10
2022-11-21T17:24:01.163Z,3.10
2022-11-21T17:26:29.871Z,3.10
2022-11-21T17:29:00.898Z,3.07
2022-11-21T17:31:28.575Z,3.10
2022-11-21T17:34:00.758Z,3.10
2022-11-21T17:36:30.723Z,3.10
2022-11-21T17:38:57.925Z,3.10
2022-11-21T17:41:25.868Z,3.20
2022-11-21T17:43:58.335Z,3.10
2022-11-21T17:46:26.931Z,3.10
2022-11-21T17:48:58.307Z,3.10
2022-11-21T17:51:33.242Z,3.10
2022-11-21T17:54:02.195Z,3.03
2022-11-21T17:56:32.878Z,3.10
2022-11-21T17:59:00.709Z,3.00
2022-11-21T18:01:28.797Z,3.20
2022-11-21T18:04:02.622Z,3.07
2022-11-21T18:06:36.334Z,3.20
2022-11-21T18:09:09.603Z,3.10
2022-11-21T18:11:40.236Z,3.07
2022-11-21T18:14:11.103Z,3.20
2022-11-21T18:16:40.068Z,3.10
2022-11-21T18:19:12.787Z,3.10
2022-11-21T18:21:39.903Z,3.13
2022-11-21T18:24:07.952Z,3.20
2022-11-21T18:26:38.527Z,3.07
2022-11-21T18:31:56.403Z,3.20
2022-11-21T18:34:23.784Z,3.13
2022-11-21T18:36:50.919Z,3.20
2022-11-21T18:39:18.316Z,3.10
2022-11-21T18:41:47.123Z,3.10
2022-11-21T18:44:21.446Z,3.20
2022-11-21T18:46:49.038Z,3.10
2022-11-21T18:49:16.491Z,3.13
2022-11-21T18:51:44.096Z,3.07
2022-11-21T18:54:11.559Z,3.10
2022-11-21T18:56:40.220Z,3.17
2022-11-21T18:59:07.679Z,3.10
2022-11-21T19:01:37.724Z,3.13
2022-11-21T19:04:05.290Z,3.10
2022-11-21T19:06:32.439Z,3.17
2022-11-21T19:08:59.722Z,3.17
2022-11-21T19:11:29.720Z,3.13
2022-11-21T19:14:00.243Z,3.10
2022-11-21T19:16:31.167Z,3.17
2022-11-21T19:19:33.159Z,3.13
2022-11-21T19:21:46.986Z,3.30
2022-11-21T19:24:15.301Z,3.13
2022-11-21T19:26:43.113Z,3.20
2022-11-21T19:29:10.783Z,3.20
2022-11-21T19:31:44.707Z,3.10
2022-11-21T19:34:14.800Z,3.10
2022-11-21T19:36:42.844Z,3.03
2022-11-21T19:39:10.505Z,3.03
2022-11-21T19:41:38.237Z,3.10
2022-11-21T19:44:05.841Z,3.10
2022-11-21T19:46:38.281Z,3.13
2022-11-21T19:49:08.016Z,3.20
2022-11-21T19:51:41.994Z,3.10
2022-11-21T19:54:12.848Z,3.07
2022-11-21T19:56:40.340Z,3.07
2022-11-21T19:59:10.797Z,3.17
2022-11-21T20:01:38.788Z,3.00
2022-11-21T20:04:07.262Z,3.00
2022-11-21T20:06:42.185Z,3.10
2022-11-21T20:09:19.860Z,3.00
2022-11-21T20:11:52.185Z,3.07
2022-11-21T20:14:22.732Z,3.07
2022-11-21T20:16:52.701Z,3.10
2022-11-21T20:19:24.027Z,3.10
2022-11-21T20:21:52.402Z,2.93
2022-11-21T20:24:19.409Z,3.10
2022-11-21T20:26:47.038Z,3.10
2022-11-21T20:29:14.715Z,3.00
2022-11-21T20:31:42.203Z,3.00
2022-11-21T20:34:13.205Z,3.00
2022-11-21T20:36:41.659Z,3.07
2022-11-21T20:39:16.703Z,3.00
2022-11-21T20:41:45.388Z,3.10
2022-11-21T20:47:10.236Z,3.10
2022-11-21T20:49:37.403Z,3.03
2022-11-21T20:54:51.433Z,3.00
2022-11-21T20:57:18.866Z,3.00
2022-11-21T20:59:45.859Z,3.07
2022-11-21T21:02:13.931Z,3.00
2022-11-21T21:04:41.808Z,3.00
2022-11-21T21:07:09.483Z,3.00
2022-11-21T21:09:36.564Z,2.97
2022-11-21T21:12:05.447Z,3.00
2022-11-21T21:14:32.447Z,3.00
2022-11-21T21:16:59.553Z,3.00
2022-11-21T21:19:26.821Z,3.03
2022-11-21T21:21:53.904Z,3.03
2022-11-21T21:24:20.899Z,3.00
2022-11-21T21:26:49.617Z,3.00
2022-11-21T21:29:20.621Z,3.00
2022-11-21T21:31:52.750Z,3.00
2022-11-21T21:34:21.748Z,3.00
2022-11-21T21:36:49.880Z,3.00
2022-11-21T21:39:16.964Z,3.03
2022-11-21T21:41:45.891Z,3.00
2022-11-21T21:44:13.144Z,3.07
2022-11-21T21:46:40.210Z,3.03
2022-11-21T21:49:07.926Z,3.00
2022-11-21T21:51:36.943Z,3.00
2022-11-21T21:54:04.913Z,3.00
2022-11-21T21:56:33.480Z,3.00
2022-11-21T21:59:00.927Z,3.07
2022-11-21T22:01:32.372Z,3.03
2022-11-21T22:04:03.458Z,3.03
2022-11-21T22:06:33.985Z,3.10
2022-11-21T22:09:02.206Z,3.03
2022-11-21T22:11:35.178Z,3.00
2022-11-21T22:14:15.255Z,3.10
2022-11-21T22:16:43.743Z,3.10
2022-11-21T22:19:10.760Z,3.07
2022-11-21T22:21:39.200Z,3.00
2022-11-21T22:24:29.773Z,3.10
2022-11-21T22:26:58.008Z,3.10
2022-11-21T22:29:26.723Z,3.03
2022-11-21T22:31:53.788Z,3.00
2022-11-21T22:34:21.784Z,3.03
2022-11-21T22:36:49.397Z,3.07
2022-11-21T22:39:17.234Z,3.00
2022-11-21T22:41:44.292Z,3.13
2022-11-21T22:44:11.718Z,3.07
2022-11-21T22:46:38.833Z,3.07
2022-11-21T22:49:05.876Z,3.10
2022-11-21T22:51:32.922Z,3.00
2022-11-21T22:53:59.856Z,3.10
2022-11-21T22:56:27.150Z,3.13
2022-11-21T22:58:54.661Z,3.10
2022-11-21T23:01:25.814Z,3.10
2022-11-21T23:03:55.394Z,3.13
2022-11-21T23:06:27.256Z,3.00
2022-11-21T23:08:56.400Z,3.03
2022-11-21T23:11:29.197Z,3.00
2022-11-21T23:13:57.309Z,2.93
2022-11-21T23:16:26.137Z,3.00
2022-11-21T23:18:55.310Z,2.97
2022-11-21T23:21:23.163Z,3.07
2022-11-21T23:23:50.415Z,3.03
2022-11-21T23:26:17.886Z,3.10
2022-11-21T23:28:44.878Z,3.00
2022-11-21T23:31:12.263Z,3.10
2022-11-21T23:33:39.695Z,3.10
2022-11-21T23:36:06.970Z,3.07
2022-11-21T23:38:33.930Z,3.03
2022-11-21T23:41:00.883Z,3.10
2022-11-21T23:43:27.906Z,3.07
2022-11-21T23:45:54.976Z,3.10
2022-11-21T23:48:24.027Z,3.03
2022-11-21T23:50:51.638Z,3.00
2022-11-21T23:53:20.196Z,3.00
2022-11-21T23:55:48.262Z,3.10
2022-11-21T23:58:15.990Z,3.07
